Flight Track Log - Related Links

Times and Time Zones

All times are in EDT time to prevent confusion due to time zone crossing. See the LXJ609 flight status page for this flight to view local times or setup timezone preferences in your user account.

Time Position Orientation Groundspeed Altitude Reporting Facility
EDT Latitude Longitude Course Direction KTS MPH feet Rate Location/Type
Thu 07:10:36 AM 41.2714 -70.1975 North 231 266 5,200  Level Boston Center
Thu 07:11:36 AM 41.3461 -70.1811 North 202 232 9,100 3,750 Climbing Boston Center
Thu 07:12:36 AM 41.4292 -70.1614 10° North 247 284 12,700 3,750 Climbing Boston Center
Thu 07:13:36 AM 41.5267 -70.1442 North 297 342 16,600 4,100 Climbing Boston Center
Thu 07:14:36 AM 41.6117 -70.2161 328° Northwest 304 350 20,900 3,650 Climbing Boston Center
Thu 07:15:00 AM 41.9028 -70.0333 North  Level FlightAware
Thu 07:15:36 AM 41.6922 -70.2939 324° Northwest 319 367 23,900  Level Boston Center
Thu 07:16:00 AM 42.0117 -70.0333 North  Level FlightAware
Thu 07:16:36 AM 41.7750 -70.3772 323° Northwest 347 399 26,900  Level Boston Center
Thu 07:17:36 AM 41.8600 -70.4636 323° Northwest 371 427 29,800 2,500 Climbing Boston Center
Thu 07:18:36 AM 41.9264 -70.5622 312° West 359 413 31,900 1,900 Climbing Boston Center
Thu 07:19:36 AM 41.9347 -70.6986 275° West 346 398 33,600 1,600 Climbing Boston Center
Thu 07:20:36 AM 41.9411 -70.8381 274° West 360 414 35,100 1,450 Climbing Boston Center
Thu 07:21:36 AM 41.9489 -70.9692 275° West 380 437 36,500 1,450 Climbing Boston Center
Thu 07:22:36 AM 41.9550 -71.1114 273° West 386 444 38,000 1,500 Climbing Boston Center
Thu 07:23:36 AM 41.9628 -71.2536 274° West 386 444 39,500 1,450 Climbing Boston Center
Thu 07:24:36 AM 41.9683 -71.3903 273° West 381 438 40,900 1,200 Climbing Boston Center
Thu 07:25:36 AM 41.9736 -71.5297 273° West 381 438 41,900 1,050 Climbing Boston Center
Thu 07:26:36 AM 41.9769 -71.6750 272° West 364 419 43,000 550 Climbing Boston Center
Thu 07:27:36 AM 41.9819 -71.8144 273° West 364 419 43,000  Level Boston Center
Thu 07:28:36 AM 41.9889 -71.9625 274° West 372 428 43,000  Level Boston Center
Thu 07:29:36 AM 41.9914 -72.1106 271° West 391 450 43,000  Level Boston Center
Thu 07:30:36 AM 41.9958 -72.2586 272° West 402 463 43,000  Level Boston Center
Thu 07:31:36 AM 42.0022 -72.4094 273° West 402 463 43,000  Level Boston Center
Thu 07:32:36 AM 42.0086 -72.5631 273° West 402 463 43,000  Level Boston Center
Thu 07:33:36 AM 42.0167 -72.7056 274° West 397 457 43,000  Level Boston Center
Thu 07:34:36 AM 42.0203 -72.8564 272° West 397 457 43,000  Level Boston Center
Thu 07:35:36 AM 42.0239 -72.9739 272° West 402 463 43,000  Level Boston Center
Thu 07:36:36 AM 42.0231 -73.1472 270° West 408 470 43,000  Level Boston Center
Thu 07:37:36 AM 42.0261 -73.2981 272° West 408 470 43,000  Level Boston Center
Thu 07:38:36 AM 42.0311 -73.4464 273° West 402 463 43,000  Level Boston Center
Thu 07:39:36 AM 42.0361 -73.5944 273° West 402 463 43,000  Level Boston Center
Thu 07:40:36 AM 42.0386 -73.7456 271° West 402 463 43,000  Level Boston Center
Thu 07:41:36 AM 42.0431 -73.8939 272° West 402 463 43,000  Level Boston Center
Thu 07:42:36 AM 42.0453 -74.0419 271° West 402 463 43,000  Level Boston Center
Thu 07:43:36 AM 42.0492 -74.1875 272° West 402 463 43,000  Level Boston Center
Thu 07:44:48 AM 42.0531 -74.3358 272° West 397 457 43,000  Level Boston Center
Thu 07:45:48 AM 42.0542 -74.5119 271° West 397 457 43,000  Level Boston Center
Thu 07:46:48 AM 42.0200 -74.6617 253° West 397 457 43,000  Level Boston Center
Thu 07:49:00 AM 41.9219 -74.9689 247° West 426 490 43,000  Level New Center
Thu 07:50:01 AM 41.8797 -75.1056 248° West 420 483 43,000  Level New Center
Thu 07:51:01 AM 41.8350 -75.2444 247° West 415 478 43,000  Level New Center
Thu 07:52:02 AM 41.7922 -75.3781 247° West 409 471 43,000  Level New Center
Thu 07:52:59 AM 41.7475 -75.5139 246° West 409 471 43,000  Level New Center
Thu 07:54:01 AM 41.7044 -75.6525 247° West 409 471 43,000  Level New Center
Thu 07:55:01 AM 41.6611 -75.7881 247° West 409 471 43,000  Level New Center
Thu 07:56:01 AM 41.6158 -75.9206 245° Southwest 409 471 43,000  Level New Center
Thu 07:57:02 AM 41.5744 -76.0561 248° West 409 471 43,000  Level New Center
Thu 07:57:59 AM 41.5311 -76.1914 247° West 409 471 43,000  Level New Center
Thu 07:59:00 AM 41.4869 -76.3317 247° West 409 471 43,000  Level New Center
Thu 08:00:01 AM 41.4453 -76.4639 247° West 414 476 43,000  Level New Center
Thu 08:01:02 AM 41.3972 -76.5953 244° Southwest 413 475 43,000  Level New Center
Thu 08:02:00 AM 41.3511 -76.7269 245° Southwest 407 468 43,000  Level New Center
Thu 08:03:01 AM 41.3047 -76.8636 246° West 407 468 43,000  Level New Center
Thu 08:04:01 AM 41.2603 -76.9978 246° West 407 468 43,000  Level New Center
Thu 08:05:01 AM 41.2156 -77.1314 246° West 407 468 43,000  Level New Center
Thu 08:06:00 AM 41.1667 -77.2675 245° Southwest 407 468 43,000  Level New Center
Thu 08:07:01 AM 41.1169 -77.4114 245° Southwest 407 468 43,000  Level New Center
Thu 08:08:02 AM 41.0719 -77.5447 246° West 402 463 43,000  Level New Center
Thu 08:09:21 AM 41.0111 -77.7158 245° Southwest 421 484 43,000  Level Cleveland Center
Thu 08:10:21 AM 40.9642 -77.8497 245° Southwest 414 476 43,000  Level Cleveland Center
Thu 08:11:21 AM 40.9172 -77.9836 245° Southwest 409 471 43,000  Level Cleveland Center
Thu 08:12:21 AM 40.8469 -78.1017 232° Southwest 409 471 43,000  Level Cleveland Center
Thu 08:13:21 AM 40.7722 -78.2114 228° Southwest 409 471 43,000  Level Cleveland Center
Thu 08:14:21 AM 40.6994 -78.3264 230° Southwest 409 471 43,000  Level Cleveland Center
Thu 08:15:21 AM 40.6267 -78.4411 230° Southwest 414 476 43,000  Level Cleveland Center
Thu 08:16:21 AM 40.5517 -78.5556 229° Southwest 414 476 43,000  Level Cleveland Center
Thu 08:17:21 AM 40.4764 -78.6725 230° Southwest 414 476 43,000  Level Cleveland Center
Thu 08:18:21 AM 40.4053 -78.7836 230° Southwest 414 476 43,000  Level Cleveland Center
Thu 08:19:21 AM 40.3300 -78.8972 229° Southwest 414 476 43,000  Level Cleveland Center
Thu 08:20:21 AM 40.2522 -79.0133 229° Southwest 414 476 43,000  Level Cleveland Center
Thu 08:21:21 AM 40.1789 -79.1267 230° Southwest 414 476 43,000  Level Cleveland Center
Thu 08:22:21 AM 40.1031 -79.2422 229° Southwest 414 476 43,000  Level Cleveland Center
Thu 08:23:21 AM 40.0292 -79.3522 229° Southwest 414 476 43,000  Level Cleveland Center
Thu 08:24:21 AM 39.9533 -79.4672 229° Southwest 414 476 43,000  Level Cleveland Center
Thu 08:25:21 AM 39.8772 -79.5822 229° Southwest 414 476 43,000  Level Cleveland Center
Thu 08:26:21 AM 39.7989 -79.6969 228° Southwest 414 476 43,000  Level Cleveland Center
Thu 08:27:21 AM 39.7206 -79.8111 228° Southwest 414 476 43,000  Level Cleveland Center
Thu 08:28:21 AM 39.6464 -79.9253 230° Southwest 419 482 43,000  Level Cleveland Center
Thu 08:29:54 AM 39.5219 -80.1017 228° Southwest 422 486 43,000  Level Indianapolis Center
Thu 08:30:56 AM 39.4428 -80.2156 228° Southwest 423 487 43,000  Level Indianapolis Center
Thu 08:31:57 AM 39.3656 -80.3306 229° Southwest 423 487 43,000  Level Indianapolis Center
Thu 08:32:59 AM 39.2719 -80.4650 228° Southwest 421 484 43,000  Level Indianapolis Center
Thu 08:34:01 AM 39.1931 -80.5789 228° Southwest 424 488 43,000  Level Indianapolis Center
Thu 08:35:03 AM 39.1167 -80.6889 228° Southwest 414 476 43,000  Level Indianapolis Center
Thu 08:36:05 AM 39.0389 -80.7989 228° Southwest 415 478 43,000  Level Indianapolis Center
Thu 08:37:06 AM 38.9617 -80.9086 228° Southwest 415 478 43,000  Level Indianapolis Center
Thu 08:38:08 AM 38.8861 -81.0175 228° Southwest 411 473 43,000  Level Indianapolis Center
Thu 08:39:10 AM 38.8089 -81.1258 228° Southwest 409 471 43,000  Level Indianapolis Center
Thu 08:40:12 AM 38.7314 -81.2344 228° Southwest 411 473 43,000  Level Indianapolis Center
Thu 08:41:14 AM 38.6525 -81.3428 227° Southwest 411 473 43,000  Level Indianapolis Center
Thu 08:42:15 AM 38.5711 -81.4606 229° Southwest 406 467 43,000  Level Indianapolis Center
Thu 08:43:17 AM 38.4808 -81.5875 228° Southwest 411 473 43,000  Level Indianapolis Center
Thu 08:44:19 AM 38.4047 -81.6947 228° Southwest 407 468 43,000  Level Indianapolis Center
Thu 08:45:21 AM 38.3250 -81.7992 226° Southwest 407 468 43,000  Level Indianapolis Center
Thu 08:46:22 AM 38.2381 -81.8931 220° Southwest 411 473 43,000  Level Indianapolis Center
Thu 08:47:24 AM 38.1503 -81.9889 221° Southwest 414 476 43,000  Level Indianapolis Center
Thu 08:48:26 AM 38.0639 -82.0822 220° Southwest 411 473 43,000  Level Indianapolis Center
Thu 08:49:28 AM 37.9631 -82.1919 221° Southwest 410 472 43,000  Level Indianapolis Center
Thu 08:50:29 AM 37.8764 -82.2850 220° Southwest 409 471 43,000 -390 Level Indianapolis Center
Thu 08:51:31 AM 37.7872 -82.3789 220° Southwest 414 476 42,200 -871 Descending Indianapolis Center
Thu 08:52:33 AM 37.6978 -82.4756 221° Southwest 421 484 41,200 -968 Descending Indianapolis Center
Thu 08:53:35 AM 37.6061 -82.5761 221° Southwest 432 497 40,200 -968 Descending Indianapolis Center
Thu 08:54:37 AM 37.5128 -82.6742 220° Southwest 435 501 39,200 -1,024 Descending Indianapolis Center
Thu 08:55:38 AM 37.4069 -82.7881 221° Southwest 429 494 38,100 -1,024 Descending Indianapolis Center
Thu 08:56:40 AM 37.3161 -82.8842 220° Southwest 427 491 37,100 -919 Descending Indianapolis Center
Thu 08:57:42 AM 37.2267 -82.9806 221° Southwest 426 490 36,200 -919 Descending Indianapolis Center
Thu 08:58:44 AM 37.1356 -83.0761 220° Southwest 429 494 35,200 -968 Descending Indianapolis Center
Thu 08:59:46 AM 37.0439 -83.1725 220° Southwest 433 498 34,200 -581 Descending Indianapolis Center
Thu 09:00:48 AM 36.9369 -83.2839 220° Southwest 433 498 34,000 -97 Descending Indianapolis Center
Thu 09:01:50 AM 36.8417 -83.3814 219° Southwest 441 507 34,000  Level Indianapolis Center
Thu 09:02:52 AM 36.7469 -83.4797 220° Southwest 445 512 34,000  Level Indianapolis Center
Thu 09:03:53 AM 36.6506 -83.5781 219° Southwest 447 514 34,000  Level Indianapolis Center
Thu 09:04:55 AM 36.5544 -83.6775 220° Southwest 450 518 34,000 -484 Level Indianapolis Center
Thu 09:05:57 AM 36.4567 -83.7778 220° Southwest 451 519 33,000 -1,065 Descending Indianapolis Center
Thu 09:06:59 AM 36.3408 -83.8997 220° Southwest 454 522 31,800 -1,065 Descending Indianapolis Center
Thu 09:08:01 AM 36.2422 -83.9986 219° Southwest 453 521 30,800 -968 Descending Indianapolis Center
Thu 09:09:03 AM 36.1444 -84.0989 220° Southwest 454 522 29,800 1,846 Descending Indianapolis Center
Thu 09:09:45 AM 36.0792 -84.1647 219° Southwest 454 522 34,000 -1,000 Climbing Atlanta Center
Thu 09:10:45 AM 35.9789 -84.2644 219° Southwest 460 529 28,100 -3,700 Descending Atlanta Center
Thu 09:11:45 AM 35.8742 -84.3719 220° Southwest 472 543 26,600 2,950 Descending Atlanta Center
Thu 09:12:45 AM 35.7758 -84.4714 219° Southwest 472 543 34,000 -3,900 Climbing Atlanta Center
Thu 09:13:45 AM 35.6797 -84.5653 218° Southwest 457 526 18,800 -9,300 Descending Atlanta Center
Thu 09:14:45 AM 35.5875 -84.6567 219° Southwest 446 513 15,400 -3,200 Descending Atlanta Center
Thu 09:15:45 AM 35.5014 -84.7453 220° Southwest 428 493 12,400 -2,150 Descending Atlanta Center
Thu 09:16:45 AM 35.4194 -84.8236 218° Southwest 402 463 11,100 -1,200 Descending Atlanta Center
Thu 09:17:45 AM 35.3439 -84.9019 220° Southwest 364 419 10,000 -1,600 Descending Atlanta Center
Thu 09:18:45 AM 35.2831 -84.9622 219° Southwest 316 364 7,900 -2,150 Descending Atlanta Center
Thu 09:19:45 AM 35.2242 -85.0203 219° Southwest 289 333 5,700 -2,200 Descending Atlanta Center
Thu 09:20:45 AM 35.1672 -85.0753 218° Southwest 274 315 3,500 -1,600 Descending Atlanta Center
Thu 09:21:45 AM 35.1231 -85.1308 226° Southwest 256 295 2,500 -800 Descending Atlanta Center
Thu 09:22:45 AM 35.0914 -85.1786 231° Southwest 219 252 1,900 -750 Descending Atlanta Center
Thu 09:23:45 AM 35.0556 -85.1983 204° Southwest 176 203 1,000 -900 Descending Atlanta Center
Thu 09:25:00 AM 35.0333 -85.2000 231° Southwest  Level FlightAware
Thu 09:32:00 AM 35.0352 -85.2036 231° Southwest  Level Estimated
Thu 09:33:00 AM 35.0333 -85.2000 231° Southwest  Level FlightAware
Thu 09:34:00 AM 35.0352 -85.2036 231° Southwest  Level Estimated
Thu 09:35:00 AM 35.0333 -85.2000 231° Southwest  Level FlightAware
Thu 09:36:00 AM 35.0352 -85.2036 231° Southwest  Level Estimated
Thu 09:37:00 AM 35.0333 -85.2000 231° Southwest  Level FlightAware
Thu 09:38:00 AM 35.0352 -85.2036 231° Southwest  Level Estimated
Thu 09:39:00 AM 35.0333 -85.2000 231° Southwest  Level FlightAware
Thu 09:40:00 AM 35.0352 -85.2036 231° Southwest  Level Estimated
Thu 09:41:00 AM 35.0333 -85.2000 231° Southwest  Level FlightAware
Thu 09:42:00 AM 35.0352 -85.2036 231° Southwest  Level Estimated
Thu 09:43:00 AM 35.0333 -85.2000 231° Southwest  Level FlightAware

Login

Don't have an account? Register now (free) for customized features, flight alerts, and more!